createdAt,value
2023-01-27T00:04:31.344Z,18.80
2023-01-27T00:09:53.109Z,17.70
2023-01-27T00:15:16.728Z,16.87
2023-01-27T00:20:57.029Z,16.57
2023-01-27T00:26:19.973Z,17.73
2023-01-27T00:32:00.200Z,17.60
2023-01-27T00:37:21.964Z,16.07
2023-01-27T00:42:44.095Z,16.80
2023-01-27T00:48:05.885Z,17.60
2023-01-27T00:53:27.636Z,16.73
2023-01-27T00:58:49.385Z,18.07
2023-01-27T01:04:11.212Z,17.33
2023-01-27T01:09:32.989Z,17.43
2023-01-27T01:14:54.746Z,18.97
2023-01-27T01:20:16.644Z,20.13
2023-01-27T01:25:38.573Z,19.50
2023-01-27T01:31:08.487Z,17.67
2023-01-27T01:36:30.383Z,18.50
2023-01-27T01:41:52.140Z,18.03
2023-01-27T01:47:17.925Z,16.20
2023-01-27T01:52:40.285Z,15.83
2023-01-27T01:58:02.945Z,15.93
2023-01-27T02:03:26.033Z,14.47
2023-01-27T02:08:50.550Z,14.97
2023-01-27T02:14:14.735Z,14.27
2023-01-27T02:20:03.292Z,12.60
2023-01-27T02:25:24.962Z,12.50
2023-01-27T02:30:46.737Z,12.37
2023-01-27T02:36:15.614Z,12.77
2023-01-27T02:41:40.829Z,13.77
2023-01-27T02:47:02.565Z,12.70
2023-01-27T02:52:25.326Z,11.17
2023-01-27T02:57:47.068Z,11.87
2023-01-27T03:03:08.831Z,11.30
2023-01-27T03:08:30.582Z,11.80
2023-01-27T03:13:52.290Z,13.00
2023-01-27T03:19:14.010Z,12.80
2023-01-27T03:24:38.005Z,12.87
2023-01-27T03:30:01.196Z,12.83
2023-01-27T03:35:34.364Z,13.63
2023-01-27T03:41:14.875Z,14.57
2023-01-27T03:46:36.688Z,14.70
2023-01-27T03:51:58.947Z,13.70
2023-01-27T03:57:20.643Z,14.33
2023-01-27T04:03:00.829Z,13.73
2023-01-27T04:08:22.643Z,13.93
2023-01-27T04:13:44.678Z,13.97
2023-01-27T04:19:08.883Z,13.43
2023-01-27T04:24:30.983Z,13.97
2023-01-27T04:29:53.264Z,14.73
2023-01-27T04:35:15.183Z,14.70
2023-01-27T04:40:37.048Z,15.57
2023-01-27T04:45:58.904Z,15.43
2023-01-27T04:51:20.736Z,15.97
2023-01-27T04:56:58.025Z,15.83
2023-01-27T05:02:19.758Z,16.97
2023-01-27T05:07:41.529Z,17.43
2023-01-27T05:13:03.280Z,18.37
2023-01-27T05:18:24.976Z,18.93
2023-01-27T05:23:46.849Z,19.03
2023-01-27T05:29:09.421Z,20.03
2023-01-27T05:34:31.160Z,19.20
2023-01-27T05:39:52.872Z,19.73
2023-01-27T05:45:15.091Z,19.67
2023-01-27T05:50:36.889Z,19.27
2023-01-27T05:55:58.706Z,20.07
2023-01-27T06:01:22.817Z,18.83
2023-01-27T06:06:44.532Z,20.00
2023-01-27T06:12:06.575Z,20.20
2023-01-27T06:17:28.353Z,16.30
2023-01-27T06:22:50.564Z,16.63
2023-01-27T06:28:27.878Z,16.77
2023-01-27T06:33:51.364Z,17.27
2023-01-27T06:39:13.188Z,18.03
2023-01-27T06:44:34.967Z,17.40
2023-01-27T06:49:56.659Z,18.13
2023-01-27T06:55:19.404Z,18.20
2023-01-27T07:00:41.646Z,17.30
2023-01-27T07:06:03.519Z,18.67
2023-01-27T07:11:25.359Z,17.70
2023-01-27T07:16:47.656Z,16.83
2023-01-27T07:22:09.383Z,17.13
2023-01-27T07:27:31.088Z,17.17
2023-01-27T07:32:54.494Z,16.00
2023-01-27T07:38:16.264Z,16.00
2023-01-27T07:43:37.971Z,16.07
2023-01-27T07:48:59.709Z,15.93
2023-01-27T07:54:21.508Z,15.00
2023-01-27T07:59:43.225Z,14.93
2023-01-27T08:05:05.189Z,14.37
2023-01-27T08:10:27.026Z,13.83
2023-01-27T08:15:55.660Z,14.10
2023-01-27T08:21:17.394Z,13.77
2023-01-27T08:26:39.143Z,13.93
2023-01-27T08:32:00.875Z,14.50
2023-01-27T08:37:22.583Z,14.67
2023-01-27T08:42:44.367Z,13.27
2023-01-27T08:48:06.810Z,13.30
2023-01-27T08:53:29.169Z,13.17
2023-01-27T08:58:52.388Z,13.23
2023-01-27T09:04:14.229Z,14.30
2023-01-27T09:09:35.942Z,13.83
2023-01-27T09:14:58.246Z,14.43
2023-01-27T09:20:20.126Z,14.43
2023-01-27T09:25:41.921Z,15.33
2023-01-27T09:31:03.743Z,16.10
2023-01-27T09:36:27.411Z,15.20
2023-01-27T09:42:02.861Z,15.97
2023-01-27T09:47:33.490Z,16.37
2023-01-27T09:53:17.745Z,18.53
2023-01-27T09:59:08.248Z,17.80
2023-01-27T10:04:49.976Z,17.70
2023-01-27T10:10:33.266Z,17.83
2023-01-27T10:16:19.458Z,18.33
2023-01-27T10:22:13.481Z,15.77
2023-01-27T10:27:43.206Z,16.23
2023-01-27T10:33:14.131Z,14.10
2023-01-27T10:38:38.870Z,16.13
2023-01-27T10:44:25.449Z,15.37
2023-01-27T10:49:53.666Z,14.87
2023-01-27T10:55:21.928Z,15.63
2023-01-27T11:06:35.376Z,14.70
2023-01-27T11:12:02.742Z,13.57
2023-01-27T11:17:32.062Z,13.87
2023-01-27T11:23:00.018Z,12.77
2023-01-27T11:28:21.660Z,12.73
2023-01-27T11:34:11.384Z,12.23
2023-01-27T11:39:33.847Z,12.00
2023-01-27T11:44:57.580Z,12.80
2023-01-27T11:50:21.934Z,12.17
2023-01-27T11:55:50.324Z,11.97
2023-01-27T12:01:19.962Z,11.77
2023-01-27T12:06:48.983Z,12.83
2023-01-27T12:12:14.971Z,11.17
2023-01-27T12:17:47.592Z,12.23
2023-01-27T12:23:32.078Z,13.20
2023-01-27T12:28:54.857Z,13.90
2023-01-27T12:34:34.000Z,13.77
2023-01-27T12:40:01.608Z,14.43
2023-01-27T12:45:26.866Z,15.07
2023-01-27T12:50:51.321Z,14.80
2023-01-27T12:56:16.427Z,14.90
2023-01-27T13:01:41.257Z,15.83
2023-01-27T13:07:02.951Z,14.63
2023-01-27T13:12:30.801Z,15.67
2023-01-27T13:17:54.932Z,15.03
2023-01-27T13:23:31.325Z,15.43
2023-01-27T13:29:15.484Z,15.30
2023-01-27T13:34:53.040Z,17.70
2023-01-27T13:40:22.518Z,16.60
2023-01-27T13:45:57.475Z,16.27
2023-01-27T13:51:25.255Z,16.90
2023-01-27T13:57:07.711Z,17.30
2023-01-27T14:03:07.547Z,17.53
2023-01-27T14:08:49.459Z,16.80
2023-01-27T14:14:37.296Z,17.10
2023-01-27T14:20:18.166Z,17.17
2023-01-27T14:26:01.592Z,17.13
2023-01-27T14:31:47.507Z,17.03
2023-01-27T14:37:34.203Z,15.53
2023-01-27T14:42:55.852Z,16.03
2023-01-27T14:48:23.666Z,13.77
2023-01-27T14:54:13.673Z,13.97
2023-01-27T14:59:44.299Z,12.67
2023-01-27T15:05:27.514Z,13.60
2023-01-27T15:11:25.293Z,13.87
2023-01-27T15:17:05.678Z,13.33
2023-01-27T15:22:51.982Z,12.17
2023-01-27T15:28:17.985Z,14.30
2023-01-27T15:33:53.438Z,13.90
2023-01-27T15:39:20.192Z,12.93
2023-01-27T15:45:01.589Z,14.40
2023-01-27T15:50:27.516Z,13.97
2023-01-27T15:55:53.366Z,13.30
2023-01-27T16:01:32.027Z,12.97
2023-01-27T16:07:02.953Z,13.53
2023-01-27T16:12:26.931Z,12.03
2023-01-27T16:18:06.888Z,12.07
2023-01-27T16:23:44.701Z,11.77
2023-01-27T16:29:29.558Z,12.00
2023-01-27T16:35:02.060Z,11.50
2023-01-27T16:40:24.491Z,11.80
2023-01-27T16:45:51.925Z,11.80
2023-01-27T16:51:18.639Z,11.53
2023-01-27T16:56:40.721Z,11.30
2023-01-27T17:02:19.642Z,11.30
2023-01-27T17:07:41.475Z,11.33
2023-01-27T17:13:03.275Z,10.83
2023-01-27T17:18:25.881Z,11.73
2023-01-27T17:23:49.330Z,10.77
2023-01-27T17:29:20.978Z,11.20
2023-01-27T17:34:42.816Z,10.27
2023-01-27T17:40:15.317Z,10.07
2023-01-27T17:45:37.925Z,11.50
2023-01-27T17:50:59.744Z,10.70
2023-01-27T17:56:27.044Z,11.27
2023-01-27T18:01:53.483Z,10.93
2023-01-27T18:07:15.636Z,10.30
2023-01-27T18:12:37.945Z,10.30
2023-01-27T18:18:19.916Z,10.73
2023-01-27T18:23:56.409Z,10.57
2023-01-27T18:29:37.337Z,10.60
2023-01-27T18:34:59.767Z,10.07
2023-01-27T18:40:30.361Z,10.13
2023-01-27T18:45:52.179Z,10.20
2023-01-27T18:51:15.507Z,9.97
2023-01-27T18:56:37.318Z,9.87
2023-01-27T19:02:00.292Z,9.13
2023-01-27T19:07:22.150Z,8.73
2023-01-27T19:12:44.045Z,9.53
2023-01-27T19:18:20.847Z,8.87
2023-01-27T19:23:44.455Z,8.90
2023-01-27T19:29:06.409Z,8.63
2023-01-27T19:34:28.161Z,8.43
2023-01-27T19:39:49.963Z,8.37
2023-01-27T19:45:14.913Z,8.87
2023-01-27T19:50:36.887Z,8.27
2023-01-27T19:55:59.197Z,8.67
2023-01-27T20:01:24.997Z,8.30
2023-01-27T20:06:46.861Z,8.07
2023-01-27T20:12:14.428Z,8.73
2023-01-27T20:17:37.762Z,8.83
2023-01-27T20:22:59.615Z,8.37
2023-01-27T20:28:21.879Z,8.73
2023-01-27T20:33:43.884Z,9.10
2023-01-27T20:39:05.682Z,9.20
2023-01-27T20:44:27.537Z,8.10
2023-01-27T20:49:50.409Z,8.90
2023-01-27T20:55:13.727Z,8.77
2023-01-27T21:00:35.622Z,7.73
2023-01-27T21:05:57.371Z,7.70
2023-01-27T21:11:21.246Z,7.97
2023-01-27T21:16:43.078Z,8.03
2023-01-27T21:22:04.869Z,7.70
2023-01-27T21:27:27.132Z,7.13
2023-01-27T21:32:49.007Z,7.40
2023-01-27T21:38:10.886Z,7.40
2023-01-27T21:43:55.987Z,7.70
2023-01-27T21:49:17.743Z,7.20
2023-01-27T21:54:39.671Z,7.13
2023-01-27T22:00:01.676Z,6.77
2023-01-27T22:05:24.630Z,6.40
2023-01-27T22:10:46.375Z,6.83
2023-01-27T22:16:13.922Z,6.23
2023-01-27T22:21:35.646Z,7.00
2023-01-27T22:26:57.381Z,6.80
2023-01-27T22:32:19.149Z,7.03
2023-01-27T22:37:41.999Z,7.30
2023-01-27T22:43:09.232Z,7.00
2023-01-27T22:48:31.066Z,6.63
2023-01-27T22:53:52.776Z,7.40
2023-01-27T22:59:14.677Z,7.53
2023-01-27T23:04:36.408Z,7.50
2023-01-27T23:09:58.209Z,6.33
2023-01-27T23:15:19.907Z,7.40
2023-01-27T23:20:42.411Z,7.30
2023-01-27T23:26:08.759Z,7.77
2023-01-27T23:31:30.605Z,6.67
2023-01-27T23:36:52.395Z,6.67
2023-01-27T23:42:15.353Z,6.63
2023-01-27T23:47:37.146Z,6.40
2023-01-27T23:52:58.892Z,6.40
2023-01-27T23:58:20.879Z,6.57
